Time;durP1;ratioP1;P1;durP2;ratioP2;P2;SDS_P1;SDS_P2;PMS_P1;PMS_P2;Temp;Humidity;BMP_temperature;BMP_pressure;BME280_temperature;BME280_humidity;BME280_pressure;Samples;Min_cycle;Max_cycle;Signal;HPM_P1;HPM_P2
2022/08/31 00:04:13;;;;;;;3.08;1.10;;;;;;;17.13;86.01;101125.11;1801916;78;26267;-77
2022/08/31 00:06:39;;;;;;;2.58;1.25;;;;;;;17.12;86.09;101128.03;1799890;78;25752;-77
2022/08/31 00:09:06;;;;;;;2.37;1.12;;;;;;;17.10;86.02;101132.84;1813682;77;25982;-77
2022/08/31 00:11:34;;;;;;;3.40;1.32;;;;;;;17.07;86.02;101133.25;1821209;78;27453;-77
2022/08/31 00:14:06;;;;;;;7.92;1.40;;;;;;;17.06;86.13;101134.32;1790897;78;25802;-77
2022/08/31 00:16:37;;;;;;;5.25;1.50;;;;;;;17.03;86.21;101132.87;1791691;78;26174;-77
2022/08/31 00:19:05;;;;;;;3.22;1.37;;;;;;;17.03;86.12;101141.50;1809499;78;25753;-77
2022/08/31 00:21:31;;;;;;;3.30;1.30;;;;;;;17.01;86.14;101139.53;1813285;78;25741;-77
2022/08/31 00:23:58;;;;;;;2.95;1.50;;;;;;;16.98;85.88;101140.28;1811293;78;27443;-77
2022/08/31 00:26:25;;;;;;;3.20;1.20;;;;;;;16.97;85.92;101137.80;1807325;78;25714;-77
2022/08/31 00:28:52;;;;;;;2.55;1.35;;;;;;;16.95;85.88;101139.38;1814299;77;25808;-77
2022/08/31 00:31:18;;;;;;;2.67;1.30;;;;;;;16.93;85.84;101140.11;1831276;77;26189;-77
2022/08/31 00:33:51;;;;;;;3.12;1.40;;;;;;;16.93;85.76;101146.04;1818710;77;25817;-77
2022/08/31 00:36:14;;;;;;;5.03;1.67;;;;;;;16.92;85.65;101146.55;1827965;77;28320;-77
2022/08/31 00:38:43;;;;;;;6.10;2.15;;;;;;;16.91;85.67;101148.94;1825020;77;25726;-76
2022/08/31 00:41:10;;;;;;;3.55;1.10;;;;;;;16.90;85.61;101149.16;1824689;77;25314;-77
2022/08/31 00:43:45;;;;;;;6.75;1.40;;;;;;;16.88;85.53;101145.84;1830913;77;25776;-77
2022/08/31 00:46:17;;;;;;;3.02;1.50;;;;;;;16.85;85.59;101147.09;1822052;78;26045;-77
2022/08/31 00:49:04;;;;;;;2.50;1.40;;;;;;;16.84;85.75;101148.67;1801612;78;27418;-77
2022/08/31 00:51:35;;;;;;;2.55;1.47;;;;;;;16.83;85.75;101145.64;1797894;78;25947;-76
2022/08/31 00:54:06;;;;;;;3.22;1.52;;;;;;;16.80;85.58;101150.98;1831599;77;26384;-76
2022/08/31 00:56:34;;;;;;;4.00;1.45;;;;;;;16.77;85.63;101146.50;1823386;78;26227;-76
2022/08/31 00:59:01;;;;;;;2.92;1.55;;;;;;;16.74;85.59;101153.17;1821143;77;25822;-76
2022/08/31 01:01:29;;;;;;;5.40;1.65;;;;;;;16.74;85.64;101146.41;1832420;76;28361;-76
2022/08/31 01:03:57;;;;;;;3.83;1.40;;;;;;;16.73;85.57;101155.58;1832477;77;25790;-76
2022/08/31 01:06:25;;;;;;;4.42;1.30;;;;;;;16.72;85.58;101149.04;1828456;77;25781;-76
2022/08/31 01:08:55;;;;;;;4.30;1.40;;;;;;;16.72;85.66;101153.91;1827937;77;25765;-76
2022/08/31 01:11:21;;;;;;;1.95;1.40;;;;;;;16.70;85.52;101153.29;1817307;77;25694;-76
2022/08/31 01:13:48;;;;;;;4.72;1.72;;;;;;;16.68;85.50;101150.52;1828111;77;27437;-76
2022/08/31 01:16:23;;;;;;;3.62;1.55;;;;;;;16.66;85.58;101149.35;1827433;77;26534;-76
2022/08/31 01:18:52;;;;;;;2.92;1.32;;;;;;;16.64;85.55;101148.73;1836635;77;25932;-76
2022/08/31 01:21:26;;;;;;;3.60;1.50;;;;;;;16.62;85.56;101152.17;1797297;78;25769;-76
2022/08/31 01:23:57;;;;;;;7.75;1.92;;;;;;;16.61;85.71;101151.89;1797653;78;25718;-76
2022/08/31 01:26:27;;;;;;;3.33;1.90;;;;;;;16.59;85.83;101154.48;1795704;78;27455;-76
2022/08/31 01:29:00;;;;;;;2.70;1.52;;;;;;;16.56;85.73;101150.84;1773316;78;25818;-76
2022/08/31 01:31:37;;;;;;;5.92;1.60;;;;;;;16.53;85.84;101148.58;1796170;78;26403;-76
2022/08/31 01:34:04;;;;;;;6.83;1.55;;;;;;;16.52;85.79;101146.39;1800697;78;26257;-76
2022/08/31 01:36:32;;;;;;;1.85;1.32;;;;;;;16.51;85.67;101146.06;1832864;76;25853;-76
2022/08/31 01:38:59;;;;;;;3.45;1.42;;;;;;;16.50;85.74;101147.64;1805649;78;27428;-76
2022/08/31 01:41:26;;;;;;;3.58;1.30;;;;;;;16.47;85.81;101148.85;1842862;77;25784;-76
2022/08/31 01:43:53;;;;;;;5.17;1.72;;;;;;;16.45;85.77;101148.23;1829598;77;26436;-76
2022/08/31 01:46:20;;;;;;;4.03;1.45;;;;;;;16.44;85.88;101143.05;1828750;77;26332;-76
2022/08/31 01:48:48;;;;;;;2.67;1.67;;;;;;;16.43;85.84;101150.84;1818578;77;25805;-76
2022/08/31 01:51:18;;;;;;;3.50;1.47;;;;;;;16.40;85.91;101145.33;1839441;77;28229;-76
2022/08/31 01:53:49;;;;;;;3.75;1.50;;;;;;;16.40;85.81;101149.38;1822546;77;26481;-76
2022/08/31 01:56:20;;;;;;;5.22;3.05;;;;;;;16.39;85.84;101146.38;1837967;77;25775;-76
2022/08/31 01:58:48;;;;;;;7.00;2.87;;;;;;;16.39;85.83;101147.73;1828855;77;25795;-76
2022/08/31 02:01:16;;;;;;;4.35;1.87;;;;;;;16.38;85.70;101147.95;1812528;77;26389;-76
2022/08/31 02:03:43;;;;;;;2.17;1.65;;;;;;;16.37;85.66;101148.47;1840758;77;27492;-76
2022/08/31 02:06:12;;;;;;;3.98;1.52;;;;;;;16.37;85.64;101143.06;1835703;77;25878;-76
2022/08/31 02:08:40;;;;;;;3.65;1.60;;;;;;;16.35;85.51;101143.80;1844717;77;25874;-76
2022/08/31 02:11:07;;;;;;;4.00;1.80;;;;;;;16.33;85.54;101143.17;1821788;77;26676;-76
2022/08/31 02:13:35;;;;;;;4.20;1.57;;;;;;;16.33;85.64;101147.23;1775363;80;25843;-76
2022/08/31 02:16:03;;;;;;;5.08;1.67;;;;;;;16.31;85.60;101146.62;1818708;77;27433;-76
2022/08/31 02:18:34;;;;;;;2.17;1.40;;;;;;;16.31;85.59;101146.62;1801137;77;26415;-76
2022/08/31 02:21:02;;;;;;;4.65;1.67;;;;;;;16.32;85.63;101148.77;1815322;77;26492;-76
2022/08/31 02:23:29;;;;;;;3.08;1.55;;;;;;;16.31;85.61;101148.48;1797241;78;25770;-76
2022/08/31 02:25:55;;;;;;;6.03;1.50;;;;;;;16.31;85.70;101144.42;1819805;78;25979;-76
2022/08/31 02:28:22;;;;;;;10.48;5.40;;;;;;;16.31;85.74;101143.91;1807549;78;27446;-76
2022/08/31 02:30:50;;;;;;;4.40;2.55;;;;;;;16.28;85.69;101140.78;1792844;78;25905;-76
2022/08/31 02:33:17;;;;;;;5.33;2.60;;;;;;;16.26;85.83;101143.70;1822233;78;25888;-76
2022/08/31 02:35:44;;;;;;;3.42;1.42;;;;;;;16.25;85.94;101142.05;1815561;78;26199;-76
2022/08/31 02:38:10;;;;;;;2.08;1.62;;;;;;;16.25;86.07;101145.27;1822759;78;25988;-76
2022/08/31 02:40:39;;;;;;;2.92;1.50;;;;;;;16.25;86.10;101143.92;1811830;78;27439;-76
2022/08/31 02:43:08;;;;;;;2.17;1.30;;;;;;;16.23;86.14;101137.35;1821827;78;26083;-76
2022/08/31 02:45:37;;;;;;;3.70;1.32;;;;;;;16.21;86.10;101138.08;1827675;78;25871;-76
2022/08/31 02:48:07;;;;;;;3.15;1.90;;;;;;;16.21;86.17;101134.03;1811523;78;25767;-76
2022/08/31 02:50:41;;;;;;;;;;;;;;;16.20;86.18;101135.09;1822238;78;25922;-76
2022/08/31 02:53:12;;;;;;;3.55;1.40;;;;;;;16.17;86.23;101136.33;1820334;78;28183;-76
2022/08/31 02:55:41;;;;;;;5.67;1.60;;;;;;;16.13;86.40;101136.45;1811752;78;25693;-76
2022/08/31 02:58:10;;;;;;;4.10;1.92;;;;;;;16.12;86.41;101134.77;1820945;78;25797;-76
2022/08/31 03:00:39;;;;;;;5.33;1.40;;;;;;;16.11;86.39;101137.69;1797591;78;26538;-76
2022/08/31 03:03:05;;;;;;;4.80;2.40;;;;;;;16.11;86.45;101134.98;1800137;78;25777;-76
2022/08/31 03:05:32;;;;;;;3.02;1.87;;;;;;;16.11;86.50;101133.13;1802125;78;27621;-76
2022/08/31 03:07:58;;;;;;;5.80;1.65;;;;;;;16.11;86.54;101141.23;1806206;78;25805;-76
2022/08/31 03:10:25;;;;;;;5.65;1.47;;;;;;;16.11;86.53;101134.98;1807553;78;25701;-76
2022/08/31 03:12:53;;;;;;;3.58;1.57;;;;;;;16.09;86.58;101137.91;1817819;78;25961;-75
2022/08/31 03:15:23;;;;;;;3.85;1.75;;;;;;;16.10;86.67;101136.85;1803611;78;25780;-76
2022/08/31 03:17:49;;;;;;;3.47;1.50;;;;;;;16.09;86.71;101140.61;1823971;77;28347;-76
2022/08/31 03:20:19;;;;;;;2.52;1.90;;;;;;;16.08;86.78;101140.28;1845212;77;25915;-76
2022/08/31 03:22:46;;;;;;;3.37;1.52;;;;;;;16.07;86.86;101147.27;1832641;77;26442;-76
2022/08/31 03:25:16;;;;;;;2.92;1.60;;;;;;;16.05;86.90;101141.23;1834785;77;26778;-76
2022/08/31 03:27:44;;;;;;;3.33;1.62;;;;;;;16.03;86.97;101145.51;1846523;77;25713;-76
2022/08/31 03:30:15;;;;;;;5.35;2.17;;;;;;;16.03;87.12;101148.20;1821443;77;27392;-75
2022/08/31 03:32:44;;;;;;;4.55;1.60;;;;;;;16.05;87.20;101147.99;1834589;77;25285;-76
2022/08/31 03:35:11;;;;;;;4.25;1.92;;;;;;;16.05;87.25;101139.88;1770300;78;25800;-76
2022/08/31 03:37:38;;;;;;;5.30;1.85;;;;;;;16.07;87.18;101145.91;1810512;77;25976;-76
2022/08/31 03:40:07;;;;;;;2.17;1.90;;;;;;;16.08;87.24;101143.53;1800481;78;25468;-76
2022/08/31 03:42:34;;;;;;;3.27;1.65;;;;;;;16.09;87.23;101143.31;1807784;78;27517;-76
2022/08/31 03:45:03;;;;;;;4.62;2.05;;;;;;;16.11;87.20;101146.64;1821676;78;25300;-76
2022/08/31 03:47:31;;;;;;;4.10;2.10;;;;;;;16.11;87.19;101138.53;1810260;78;25722;-76
2022/08/31 03:49:59;;;;;;;2.83;1.60;;;;;;;16.13;87.15;101147.26;1808968;78;26540;-76
2022/08/31 03:52:27;;;;;;;4.97;1.75;;;;;;;16.14;87.23;101149.45;1818598;78;25483;-76
2022/08/31 03:55:02;;;;;;;5.03;1.80;;;;;;;16.13;87.19;101149.95;1815515;78;27455;-76
2022/08/31 03:57:28;;;;;;;1.95;1.42;;;;;;;16.15;87.21;101152.44;1809302;78;25234;-76
2022/08/31 03:59:56;;;;;;;6.83;2.00;;;;;;;16.14;87.14;101157.01;1812454;78;25789;-75
2022/08/31 04:02:42;;;;;;;3.42;1.65;;;;;;;16.15;87.17;101157.84;1823023;78;26701;-76
2022/08/31 04:05:20;;;;;;;5.78;1.77;;;;;;;16.15;87.21;101158.69;1720863;82;25342;-76
2022/08/31 04:08:01;;;;;;;6.72;2.42;;;;;;;16.15;87.17;101157.34;1816361;78;27636;-77
2022/08/31 04:10:50;;;;;;;3.55;1.92;;;;;;;16.16;87.22;101159.52;1818010;78;25906;-77
2022/08/31 04:13:22;;;;;;;4.12;1.98;;;;;;;16.16;87.23;101160.36;1809833;78;26522;-77
2022/08/31 04:15:50;;;;;;;6.33;1.65;;;;;;;16.14;87.18;101159.72;1786845;78;25938;-77
2022/08/31 04:18:21;;;;;;;3.60;1.82;;;;;;;16.13;87.24;101157.23;1808931;78;26280;-77
2022/08/31 04:20:48;;;;;;;5.30;1.55;;;;;;;16.14;87.33;101166.47;1829075;77;26889;-77
2022/08/31 04:23:14;;;;;;;2.58;1.67;;;;;;;16.13;87.33;101168.87;1835477;77;25707;-77
2022/08/31 04:25:51;;;;;;;2.65;1.80;;;;;;;16.11;87.37;101165.55;1836584;77;25804;-77
2022/08/31 04:28:17;;;;;;;5.17;1.92;;;;;;;16.08;87.44;101167.31;1814717;78;25907;-77
2022/08/31 04:30:44;;;;;;;5.15;1.90;;;;;;;16.06;87.55;101163.15;1811204;77;26358;-77
2022/08/31 04:33:12;;;;;;;3.85;1.85;;;;;;;16.04;87.63;101170.13;1812128;78;27811;-77
2022/08/31 04:35:40;;;;;;;3.60;1.47;;;;;;;16.03;87.78;101163.08;1809104;78;26227;-77
2022/08/31 04:38:08;;;;;;;3.75;1.80;;;;;;;16.06;87.86;101166.69;1839422;77;25778;-77
2022/08/31 04:40:40;;;;;;;4.80;1.80;;;;;;;16.08;87.98;101163.80;1834351;76;26207;-77
2022/08/31 04:43:07;;;;;;;7.17;1.40;;;;;;;16.10;88.06;101168.48;1810816;78;25997;-77
2022/08/31 04:45:34;;;;;;;3.45;1.40;;;;;;;16.13;88.07;101168.87;1815386;78;28311;-77
2022/08/31 04:48:00;;;;;;;3.42;1.45;;;;;;;16.15;88.07;101176.25;1807528;77;26006;-77
2022/08/31 04:50:26;;;;;;;3.42;1.80;;;;;;;16.16;88.11;101176.58;1818101;77;26104;-77
2022/08/31 04:53:07;;;;;;;4.00;1.50;;;;;;;16.20;88.15;101183.74;1797125;78;25884;-77
2022/08/31 04:55:35;;;;;;;3.50;1.67;;;;;;;16.21;88.13;101179.47;1819993;78;25861;-77
2022/08/31 04:58:01;;;;;;;6.25;1.65;;;;;;;16.25;88.13;101183.12;1825612;78;28291;-77
2022/08/31 05:00:28;;;;;;;4.30;1.35;;;;;;;16.27;88.08;101183.73;1823534;78;26328;-77
2022/08/31 05:02:57;;;;;;;2.80;1.37;;;;;;;16.27;88.04;101186.44;1811388;78;25799;-77
2022/08/31 05:05:23;;;;;;;5.20;1.60;;;;;;;16.30;88.19;101187.36;1825507;78;25863;-77
2022/08/31 05:07:50;;;;;;;4.87;1.65;;;;;;;16.33;88.21;101186.44;1836295;77;25845;-77
2022/08/31 05:10:16;;;;;;;4.95;1.70;;;;;;;16.35;88.10;101191.11;1807460;78;27421;-77
2022/08/31 05:12:45;;;;;;;2.90;1.50;;;;;;;16.36;88.20;101188.70;1786071;78;25936;-77
2022/08/31 05:15:12;;;;;;;5.37;2.25;;;;;;;16.39;88.18;101188.80;1806848;78;26419;-77
2022/08/31 05:17:38;;;;;;;3.72;1.37;;;;;;;16.44;88.32;101191.72;1808915;78;25938;-77
2022/08/31 05:20:06;;;;;;;3.12;1.40;;;;;;;16.46;88.38;101197.23;1840578;77;25626;-77
2022/08/31 05:22:32;;;;;;;4.97;1.30;;;;;;;16.50;88.43;101192.27;1814010;77;26959;-77
2022/08/31 05:25:00;;;;;;;2.60;1.40;;;;;;;16.53;88.39;101198.06;1800579;78;25251;-77
2022/08/31 05:27:26;;;;;;;1.85;1.20;;;;;;;16.55;88.28;101205.45;1810866;77;25313;-77
2022/08/31 05:29:53;;;;;;;4.75;1.40;;;;;;;16.57;88.23;101200.66;1844840;76;25849;-77
2022/08/31 05:32:38;;;;;;;4.12;1.17;;;;;;;16.58;88.20;101198.79;1838921;76;25817;-76
2022/08/31 05:35:05;;;;;;;3.45;1.40;;;;;;;16.57;88.28;101197.95;1842021;76;27965;-76
2022/08/31 05:37:32;;;;;;;4.42;1.45;;;;;;;16.60;88.56;101200.25;1833648;77;25937;-76
2022/08/31 05:39:59;;;;;;;6.15;1.47;;;;;;;16.61;88.47;101201.92;1839209;76;25804;-76
2022/08/31 05:42:25;;;;;;;2.98;1.30;;;;;;;16.64;88.49;101208.76;1834322;77;26518;-76
2022/08/31 05:44:51;;;;;;;4.03;1.32;;;;;;;16.66;88.58;101208.86;1837583;77;25273;-76
2022/08/31 05:47:18;;;;;;;5.60;1.52;;;;;;;16.65;88.43;101213.14;1837284;77;27401;-76
2022/08/31 05:49:45;;;;;;;5.85;1.47;;;;;;;16.60;88.31;101211.06;1816415;77;25869;-75
2022/08/31 05:52:14;;;;;;;3.85;1.45;;;;;;;16.58;88.38;101207.74;1808093;78;26161;-76
2022/08/31 05:54:41;;;;;;;2.35;1.15;;;;;;;16.58;88.54;101213.16;1796673;78;27032;-76
2022/08/31 05:57:08;;;;;;;5.25;1.60;;;;;;;16.59;88.56;101216.70;1797712;78;25953;-76
2022/08/31 05:59:34;;;;;;;2.27;1.15;;;;;;;16.57;88.47;101217.43;1765549;79;27468;-76
2022/08/31 06:02:03;;;;;;;2.40;1.22;;;;;;;16.56;88.30;101216.59;1765839;78;25868;-76
2022/08/31 06:04:31;;;;;;;3.55;1.27;;;;;;;16.62;88.63;101216.26;1807462;78;25750;-76
2022/08/31 06:06:57;;;;;;;4.78;1.32;;;;;;;16.69;88.71;101220.63;1800512;78;26500;-76
2022/08/31 06:09:25;;;;;;;4.33;1.57;;;;;;;16.77;88.33;101224.97;1797386;78;25291;-76
2022/08/31 06:11:52;;;;;;;2.87;1.22;;;;;;;16.83;88.27;101224.95;1796353;78;27496;-76
2022/08/31 06:14:21;;;;;;;3.15;1.25;;;;;;;16.91;88.24;101227.97;1800987;78;26504;-76
2022/08/31 06:16:48;;;;;;;6.40;1.52;;;;;;;16.99;88.09;101223.66;1839311;77;25590;-76
2022/08/31 06:19:16;;;;;;;3.62;1.52;;;;;;;17.07;87.91;101231.54;1802183;78;25919;-76
2022/08/31 06:21:48;;;;;;;3.60;1.50;;;;;;;17.14;87.47;101234.23;1806083;78;25815;-75
2022/08/31 06:24:13;;;;;;;3.35;1.17;;;;;;;17.19;87.38;101237.13;1827632;77;27485;-76
2022/08/31 06:26:40;;;;;;;4.95;1.00;;;;;;;17.26;86.72;101235.20;1792623;78;25742;-77
2022/08/31 06:29:14;;;;;;;6.08;1.07;;;;;;;17.28;86.08;101234.50;1805396;78;25834;-77
2022/08/31 06:31:46;;;;;;;3.72;1.10;;;;;;;17.33;86.03;101236.02;1827596;77;25959;-77
2022/08/31 06:34:15;;;;;;;1.37;0.72;;;;;;;17.37;85.51;101236.73;1806323;78;25719;-77
2022/08/31 06:37:03;;;;;;;1.52;0.70;;;;;;;17.43;84.87;101243.98;1798778;78;27447;-77
2022/08/31 06:39:35;;;;;;;3.87;0.98;;;;;;;17.46;84.65;101236.80;1797544;78;25909;-77
2022/08/31 06:42:10;;;;;;;2.00;0.90;;;;;;;17.55;84.81;101226.58;1815837;78;25856;-77
2022/08/31 06:44:38;;;;;;;2.33;1.15;;;;;;;17.64;84.69;101228.80;1814076;78;26253;-77
2022/08/31 06:47:06;;;;;;;5.72;1.05;;;;;;;17.65;83.22;101229.11;1820253;78;25780;-77
2022/08/31 06:49:35;;;;;;;3.98;0.88;;;;;;;17.66;83.16;101234.82;1818790;78;28252;-77
2022/08/31 06:52:02;;;;;;;3.70;0.98;;;;;;;17.72;82.79;101230.43;1785513;78;26531;-77
2022/08/31 06:54:31;;;;;;;4.55;0.88;;;;;;;17.77;82.07;101228.42;1817414;78;26471;-77
2022/08/31 06:57:02;;;;;;;2.17;0.70;;;;;;;17.80;81.86;101225.26;1751070;78;26554;-77
2022/08/31 06:59:28;;;;;;;3.22;1.65;;;;;;;17.86;81.68;101225.22;1808662;78;25828;-77
2022/08/31 07:02:13;;;;;;;2.95;0.80;;;;;;;17.94;81.79;101234.98;1812119;78;28258;-77
2022/08/31 07:04:40;;;;;;;3.12;0.80;;;;;;;17.96;80.64;101235.59;1813567;78;25933;-77
2022/08/31 07:07:10;;;;;;;3.60;0.95;;;;;;;17.98;80.55;101230.26;1816617;78;25748;-77
2022/08/31 07:09:38;;;;;;;2.98;0.80;;;;;;;18.05;80.49;101232.38;1813685;78;25810;-77
2022/08/31 07:12:07;;;;;;;3.85;0.95;;;;;;;18.12;80.00;101234.52;1821550;78;26449;-77
2022/08/31 07:14:34;;;;;;;4.95;0.62;;;;;;;18.18;79.49;101230.08;1816378;78;28241;-77
2022/08/31 07:17:04;;;;;;;3.25;0.70;;;;;;;18.24;79.07;101233.29;1806478;78;25866;-77
2022/08/31 07:19:31;;;;;;;3.25;0.70;;;;;;;18.29;78.52;101233.44;1817486;78;25799;-76
2022/08/31 07:22:00;;;;;;;2.95;1.00;;;;;;;18.37;78.10;101235.86;1809976;78;26599;-76
2022/08/31 07:24:32;;;;;;;1.37;0.60;;;;;;;18.38;77.40;101226.17;1779153;78;26363;-76
2022/08/31 07:27:03;;;;;;;1.07;0.62;;;;;;;18.41;77.18;101222.99;1796277;78;26957;-76
2022/08/31 07:29:39;;;;;;;2.47;0.60;;;;;;;18.48;76.72;101222.97;1797772;78;26404;-76
2022/08/31 07:32:04;;;;;;;2.30;0.50;;;;;;;18.48;76.32;101232.46;1810839;78;26386;-76
2022/08/31 07:34:32;;;;;;;1.77;0.60;;;;;;;18.44;75.84;101236.67;1801086;78;25755;-76
2022/08/31 07:42:48;;;;;;;2.12;0.68;;;;;;;18.40;75.02;101242.21;1799195;78;25895;-77
2022/08/31 07:45:23;;;;;;;1.70;0.68;;;;;;;18.42;75.19;101240.94;1812977;78;25741;-77
2022/08/31 07:47:52;;;;;;;1.82;0.70;;;;;;;18.46;75.18;101238.64;1812893;77;25841;-76
2022/08/31 07:50:21;;;;;;;2.55;0.50;;;;;;;18.57;75.84;101242.50;1824736;77;25909;-76
2022/08/31 07:52:57;;;;;;;0.98;0.50;;;;;;;18.71;76.27;101241.34;1798412;78;27456;-76
2022/08/31 07:55:44;;;;;;;2.05;0.60;;;;;;;18.80;75.41;101243.52;1808465;78;25783;-76
2022/08/31 07:58:12;;;;;;;1.07;0.60;;;;;;;18.82;74.74;101241.95;1799461;78;25892;-76
2022/08/31 08:00:42;;;;;;;1.92;0.80;;;;;;;18.85;74.85;101249.11;1806891;78;26370;-77
2022/08/31 08:03:07;;;;;;;1.67;0.78;;;;;;;18.93;74.73;101252.05;1792796;77;25794;-76
2022/08/31 08:05:37;;;;;;;4.20;0.80;;;;;;;18.99;75.24;101252.52;1812146;78;27520;-76
2022/08/31 08:08:23;;;;;;;2.80;0.88;;;;;;;19.01;74.65;101255.29;1786269;78;25873;-77
2022/08/31 08:10:55;;;;;;;2.80;0.60;;;;;;;18.98;74.36;101257.64;1811733;78;26029;-76
2022/08/31 08:13:42;;;;;;;1.52;0.60;;;;;;;18.93;73.95;101259.67;1819835;76;26592;-76
2022/08/31 08:16:17;;;;;;;1.75;0.70;;;;;;;18.91;73.65;101263.66;1807488;78;25933;-77
2022/08/31 08:18:48;;;;;;;1.22;0.50;;;;;;;18.94;73.72;101268.65;1808438;78;27464;-76
2022/08/31 08:21:16;;;;;;;2.12;0.60;;;;;;;19.00;74.01;101265.03;1804016;78;25785;-76
2022/08/31 08:23:42;;;;;;;1.98;0.85;;;;;;;19.09;73.77;101269.95;1799011;78;25863;-76
2022/08/31 08:26:12;;;;;;;1.07;0.53;;;;;;;19.16;73.05;101273.95;1796304;78;25945;-77
2022/08/31 08:28:57;;;;;;;2.45;0.50;;;;;;;19.22;72.43;101273.03;1812654;78;25772;-77
2022/08/31 08:31:24;;;;;;;2.12;0.50;;;;;;;19.30;72.20;101268.65;1798930;78;28230;-76
2022/08/31 08:33:51;;;;;;;6.65;0.90;;;;;;;19.39;72.29;101267.33;1807517;78;25932;-76
2022/08/31 08:36:19;;;;;;;3.87;0.60;;;;;;;19.50;72.06;101264.36;1825493;77;25971;-77
2022/08/31 08:38:50;;;;;;;3.22;1.05;;;;;;;19.61;71.57;101268.48;1808688;78;26340;-76
2022/08/31 08:41:24;;;;;;;2.80;0.57;;;;;;;19.75;70.86;101272.69;1813681;78;25888;-77
2022/08/31 08:43:55;;;;;;;2.62;0.60;;;;;;;19.79;69.77;101271.69;1820838;78;27455;-77
2022/08/31 08:46:33;;;;;;;1.52;0.78;;;;;;;19.81;68.82;101268.20;1802289;78;25823;-76
2022/08/31 08:49:05;;;;;;;1.40;0.45;;;;;;;19.74;68.13;101265.58;1811037;78;25903;-76
2022/08/31 08:51:36;;;;;;;0.53;0.40;;;;;;;19.61;65.87;101262.23;1781869;78;25905;-77
2022/08/31 08:54:14;;;;;;;;;;;;;;;19.46;65.61;101270.77;1807049;78;25921;-76
2022/08/31 08:56:47;;;;;;;2.17;0.60;;;;;;;19.32;64.57;101273.84;1814513;78;27529;-77
2022/08/31 08:59:16;;;;;;;1.30;0.50;;;;;;;19.18;64.88;101272.64;1817677;78;25925;-76
2022/08/31 09:01:48;;;;;;;0.75;0.42;;;;;;;19.11;64.97;101274.63;1803056;78;25710;-77
2022/08/31 09:04:32;;;;;;;2.67;0.50;;;;;;;19.15;65.27;101275.83;1799575;78;44565;-76
2022/08/31 09:07:29;;;;;;;2.80;0.55;;;;;;;19.24;65.66;101273.64;1810039;78;25908;-77
2022/08/31 09:10:32;;;;;;;0.53;0.40;;;;;;;19.37;65.44;101278.11;1811061;78;27462;-77
2022/08/31 09:13:13;;;;;;;3.45;1.10;;;;;;;19.46;65.50;101286.27;1811229;78;25864;-77
2022/08/31 09:15:54;;;;;;;2.75;0.60;;;;;;;19.58;65.09;101281.70;1819763;78;25767;-77
2022/08/31 09:18:46;;;;;;;1.85;0.70;;;;;;;19.66;64.97;101274.06;1796275;78;26616;-77
2022/08/31 09:21:24;;;;;;;1.65;0.60;;;;;;;19.80;65.34;101276.89;1802446;78;26455;-77
2022/08/31 09:24:07;;;;;;;0.70;0.47;;;;;;;19.96;65.00;101272.17;1800312;78;27500;-77
2022/08/31 09:27:17;;;;;;;1.73;0.70;;;;;;;20.11;64.93;101269.53;1732780;81;25853;-77
2022/08/31 09:29:55;;;;;;;2.65;0.60;;;;;;;20.24;64.09;101272.09;1732669;81;25853;-77
2022/08/31 09:32:25;;;;;;;1.82;0.70;;;;;;;20.36;63.82;101264.80;1773586;78;25850;-77
2022/08/31 09:35:05;;;;;;;1.47;0.60;;;;;;;20.39;61.35;101269.22;1813683;78;26540;-77
2022/08/31 09:37:44;;;;;;;1.17;0.60;;;;;;;20.35;60.33;101262.59;1806970;78;28318;-76
2022/08/31 09:40:41;;;;;;;1.95;0.50;;;;;;;20.26;59.68;101261.27;1840686;76;25716;-76
2022/08/31 09:43:33;;;;;;;0.77;0.40;;;;;;;20.20;58.75;101261.34;1791630;78;25836;-77
2022/08/31 09:46:20;;;;;;;1.02;0.45;;;;;;;20.26;58.49;101263.16;1799275;78;25790;-77
2022/08/31 09:48:55;;;;;;;0.93;0.30;;;;;;;20.34;57.74;101264.17;1791381;78;25694;-77
2022/08/31 09:51:32;;;;;;;0.85;0.60;;;;;;;20.42;58.52;101257.84;1807096;78;28269;-77
2022/08/31 09:57:07;;;;;;;3.70;0.70;;;;;;;20.58;57.71;101263.14;1797506;78;25725;-77
2022/08/31 09:59:44;;;;;;;1.17;0.50;;;;;;;20.65;57.92;101255.16;1793463;78;25827;-77
2022/08/31 10:02:24;;;;;;;0.85;0.65;;;;;;;20.70;56.32;101255.78;1792833;78;25816;-77
2022/08/31 10:04:59;;;;;;;1.70;0.50;;;;;;;20.73;56.49;101257.52;1799161;78;27662;-77
2022/08/31 10:07:44;;;;;;;1.45;0.50;;;;;;;20.78;57.15;101250.81;1793024;78;25788;-77
2022/08/31 10:10:25;;;;;;;1.55;0.60;;;;;;;20.75;56.92;101252.66;1796520;78;25908;-77
2022/08/31 10:12:57;;;;;;;;;;;;;;;20.69;57.24;101245.45;1798477;78;25946;-80
2022/08/31 10:15:41;;;;;;;1.95;0.53;;;;;;;20.57;56.04;101250.61;1794122;78;26402;-79
2022/08/31 10:18:16;;;;;;;3.83;1.10;;;;;;;20.56;57.15;101249.77;1786917;78;28163;-79
2022/08/31 10:20:48;;;;;;;5.08;0.70;;;;;;;20.63;56.41;101244.21;1777049;79;25793;-80
2022/08/31 10:23:33;;;;;;;1.70;0.55;;;;;;;20.69;55.33;101247.34;1825679;77;25274;-81
2022/08/31 10:26:04;;;;;;;1.50;0.68;;;;;;;20.76;55.52;101246.14;1799344;78;26401;-77
2022/08/31 10:28:47;;;;;;;0.90;0.60;;;;;;;20.87;56.10;101245.83;1804965;77;25630;-78
2022/08/31 10:31:25;;;;;;;1.00;0.40;;;;;;;20.98;55.49;101241.47;1809557;76;27456;-80
2022/08/31 10:37:06;;;;;;;1.07;0.45;;;;;;;21.03;54.90;101249.76;1805288;78;25806;-77
2022/08/31 10:39:53;;;;;;;0.72;0.42;;;;;;;21.07;53.46;101241.40;1802784;78;26963;-77
2022/08/31 10:42:36;;;;;;;1.55;0.68;;;;;;;20.99;52.54;101232.21;1797365;78;25831;-76
2022/08/31 10:45:18;;;;;;;0.90;0.57;;;;;;;21.01;53.81;101231.44;1811888;77;27588;-78
2022/08/31 10:47:49;;;;;;;1.85;0.80;;;;;;;21.09;54.24;101231.92;1812069;77;26266;-77
2022/08/31 10:50:43;;;;;;;0.45;0.40;;;;;;;21.09;53.42;101233.81;1762517;78;26411;-76
2022/08/31 10:53:32;;;;;;;1.12;0.50;;;;;;;21.01;53.48;101236.88;1742561;81;25798;-76
2022/08/31 10:56:13;;;;;;;0.95;0.47;;;;;;;20.84;52.99;101234.59;1753213;81;26132;-77
2022/08/31 10:59:00;;;;;;;1.00;0.40;;;;;;;20.69;53.67;101226.92;1756040;81;27413;-77
2022/08/31 11:01:46;;;;;;;1.25;0.37;;;;;;;20.57;53.66;101238.36;1733243;81;25761;-77
2022/08/31 11:04:33;;;;;;;1.17;0.45;;;;;;;20.43;53.99;101243.19;1742807;81;25731;-76
2022/08/31 11:07:17;;;;;;;0.88;0.45;;;;;;;20.33;53.91;101241.59;1744160;81;27004;-76
2022/08/31 11:10:04;;;;;;;0.72;0.53;;;;;;;20.41;54.48;101232.24;1736132;81;25887;-76
2022/08/31 11:12:41;;;;;;;0.98;0.50;;;;;;;20.58;54.00;101229.11;1730296;80;27500;-77
2022/08/31 11:15:31;;;;;;;1.90;0.37;;;;;;;20.69;53.09;101226.39;1741263;80;26005;-77
2022/08/31 11:18:25;;;;;;;1.80;0.40;;;;;;;20.81;52.26;101228.28;1726082;81;25984;-76
2022/08/31 11:21:34;;;;;;;0.85;0.60;;;;;;;20.93;52.19;101223.64;1753927;80;25796;-76
2022/08/31 11:24:27;;;;;;;0.62;0.30;;;;;;;21.05;51.60;101219.02;1745632;79;26924;-77
2022/08/31 11:27:04;;;;;;;3.42;0.40;;;;;;;21.24;51.06;101227.32;1736310;80;27479;-77
2022/08/31 11:29:36;;;;;;;2.47;0.40;;;;;;;21.26;50.70;101226.54;1764301;80;25630;-79
2022/08/31 11:32:11;;;;;;;1.55;0.40;;;;;;;21.25;51.34;101227.63;1743776;80;26340;-77
2022/08/31 11:34:52;;;;;;;3.05;0.50;;;;;;;21.16;51.37;101226.34;1733446;82;25930;-77
2022/08/31 11:37:51;;;;;;;3.55;0.85;;;;;;;21.04;51.97;101228.27;1772013;79;25937;-77
2022/08/31 11:40:42;;;;;;;0.90;0.40;;;;;;;20.92;52.57;101231.50;1730899;81;28236;-77
2022/08/31 11:43:15;;;;;;;2.08;0.50;;;;;;;20.73;52.57;101233.55;1763594;80;26627;-77
2022/08/31 11:45:42;;;;;;;1.42;0.45;;;;;;;20.54;52.54;101219.77;1769741;79;26308;-78
2022/08/31 11:48:49;;;;;;;4.50;0.50;;;;;;;20.46;52.73;101222.84;1749717;81;26529;-80
2022/08/31 11:51:44;;;;;;;1.45;0.42;;;;;;;20.47;53.69;101211.72;1746361;81;26427;-79
2022/08/31 11:54:25;;;;;;;0.62;0.30;;;;;;;20.57;54.45;101216.58;1754515;80;28649;-79
2022/08/31 11:56:55;;;;;;;0.88;0.35;;;;;;;20.73;53.11;101211.77;1755999;78;26474;-79
2022/08/31 11:59:32;;;;;;;0.55;0.55;;;;;;;20.88;52.99;101199.84;1770903;79;26385;-76
2022/08/31 12:02:22;;;;;;;1.65;0.50;;;;;;;21.03;52.50;101190.67;1776318;79;25767;-76
2022/08/31 12:05:02;;;;;;;0.65;0.30;;;;;;;21.17;52.34;101192.03;1772453;79;25956;-76
2022/08/31 12:07:36;;;;;;;3.55;0.82;;;;;;;21.32;51.83;101188.81;1739681;81;28239;-77